createdAt,value
2022-11-25T00:01:54.031Z,100505.56
2022-11-25T00:04:23.324Z,100509.91
2022-11-25T00:06:52.493Z,100495.31
2022-11-25T00:09:21.769Z,100505.69
2022-11-25T00:11:58.011Z,100501.28
2022-11-25T00:14:27.327Z,100509.91
2022-11-25T00:16:58.389Z,100521.63
2022-11-25T00:19:27.598Z,100516.38
2022-11-25T00:21:56.730Z,100518.78
2022-11-25T00:24:26.127Z,100503.06
2022-11-25T00:26:55.246Z,100509.38
2022-11-25T00:29:24.584Z,100533.66
2022-11-25T00:31:53.755Z,100526.13
2022-11-25T00:34:25.029Z,100526.28
2022-11-25T00:36:56.049Z,100527.31
2022-11-25T00:39:26.688Z,100526.13
2022-11-25T00:42:13.756Z,100534.94
2022-11-25T00:44:48.040Z,100533.66
2022-11-25T00:47:20.368Z,100537.41
2022-11-25T00:49:54.285Z,100533.03
2022-11-25T00:52:25.523Z,100521.16
2022-11-25T00:54:59.780Z,100505.09
2022-11-25T00:57:34.024Z,100516.06
2022-11-25T01:00:03.523Z,100520.69
2022-11-25T01:02:33.465Z,100528.84
2022-11-25T01:05:05.088Z,100508.00
2022-11-25T01:07:36.733Z,100516.41
2022-11-25T01:12:49.868Z,100486.63
2022-11-25T01:15:19.186Z,100542.25
2022-11-25T01:17:56.182Z,100537.97
2022-11-25T01:20:27.831Z,100532.94
2022-11-25T01:23:02.161Z,100544.72
2022-11-25T01:25:31.457Z,100494.69
2022-11-25T01:28:02.223Z,100549.50
2022-11-25T01:30:41.052Z,100553.78
2022-11-25T01:33:10.702Z,100550.63
2022-11-25T01:35:41.878Z,100548.44
2022-11-25T01:38:16.138Z,100509.03
2022-11-25T01:40:47.586Z,100566.28
2022-11-25T01:43:17.332Z,100568.78
2022-11-25T01:45:47.358Z,100569.22
2022-11-25T01:48:22.561Z,100563.56
2022-11-25T01:50:55.198Z,100551.03
2022-11-25T01:53:29.572Z,100569.41
2022-11-25T01:56:05.002Z,100575.19
2022-11-25T01:58:39.483Z,100570.78
2022-11-25T02:01:10.419Z,100571.06
2022-11-25T02:03:49.623Z,100562.56
2022-11-25T02:06:31.841Z,100553.44
2022-11-25T02:09:07.590Z,100566.50
2022-11-25T02:11:40.849Z,100567.16
2022-11-25T02:14:11.472Z,100564.34
2022-11-25T02:16:40.963Z,100563.88
2022-11-25T02:19:22.895Z,100557.81
2022-11-25T02:22:01.505Z,100495.47
2022-11-25T02:24:44.857Z,100566.91
2022-11-25T02:27:18.003Z,100562.72
2022-11-25T02:29:49.259Z,100568.16
2022-11-25T02:32:24.506Z,100555.75
2022-11-25T02:34:53.755Z,100571.13
2022-11-25T02:37:28.154Z,100534.81
2022-11-25T02:39:59.163Z,100530.97
2022-11-25T02:42:31.822Z,100554.50
2022-11-25T02:45:16.699Z,100538.16
2022-11-25T02:47:46.068Z,100571.53
2022-11-25T02:50:25.897Z,100573.66
2022-11-25T02:52:56.127Z,100588.88
2022-11-25T02:55:25.373Z,100592.00
2022-11-25T02:57:56.609Z,100587.84
2022-11-25T03:00:26.001Z,100584.59
2022-11-25T03:03:01.543Z,100556.16
2022-11-25T03:05:30.905Z,100610.47
2022-11-25T03:08:02.189Z,100597.53
2022-11-25T03:10:32.426Z,100606.44
2022-11-25T03:13:04.401Z,100614.34
2022-11-25T03:15:35.024Z,100593.44
2022-11-25T03:18:04.701Z,100614.66
2022-11-25T03:20:39.827Z,100597.63
2022-11-25T03:23:10.050Z,100617.81
2022-11-25T03:25:39.267Z,100615.31
2022-11-25T03:28:11.710Z,100622.19
2022-11-25T03:30:41.047Z,100629.59
2022-11-25T03:33:11.091Z,100632.34
2022-11-25T03:35:40.476Z,100635.00
2022-11-25T03:38:09.891Z,100641.56
2022-11-25T03:43:22.308Z,100642.56
2022-11-25T03:45:51.931Z,100638.19
2022-11-25T03:48:21.120Z,100619.19
2022-11-25T03:50:50.930Z,100652.84
2022-11-25T03:53:21.111Z,100653.66
2022-11-25T03:55:50.667Z,100632.59
2022-11-25T03:58:25.471Z,100650.09
2022-11-25T04:00:54.543Z,100662.03
2022-11-25T04:03:23.862Z,100658.03
2022-11-25T04:05:53.164Z,100657.63
2022-11-25T04:08:22.874Z,100661.13
2022-11-25T04:10:52.951Z,100658.66
2022-11-25T04:13:31.230Z,100659.22
2022-11-25T04:16:00.545Z,100661.03
2022-11-25T04:18:29.745Z,100643.19
2022-11-25T04:21:09.279Z,100654.38
2022-11-25T04:23:38.671Z,100658.16
2022-11-25T04:26:11.882Z,100659.06
2022-11-25T04:28:46.341Z,100660.06
2022-11-25T04:33:52.864Z,100656.22
2022-11-25T04:36:24.525Z,100674.91
2022-11-25T04:38:59.491Z,100683.44
2022-11-25T04:41:34.607Z,100684.50
2022-11-25T04:44:06.417Z,100677.72
2022-11-25T04:46:43.539Z,100669.31
2022-11-25T04:49:13.974Z,100645.59
2022-11-25T04:51:43.348Z,100683.00
2022-11-25T04:54:17.475Z,100680.22
2022-11-25T04:56:48.230Z,100642.97
2022-11-25T04:59:34.708Z,100691.88
2022-11-25T05:02:04.663Z,100675.34
2022-11-25T05:04:38.568Z,100681.38
2022-11-25T05:07:09.271Z,100652.19
2022-11-25T05:09:45.179Z,100687.13
2022-11-25T05:12:21.803Z,100682.88
2022-11-25T05:14:53.283Z,100678.66
2022-11-25T05:17:25.543Z,100675.56
2022-11-25T05:20:01.872Z,100671.34
2022-11-25T05:22:34.205Z,100665.22
2022-11-25T05:25:07.116Z,100669.16
2022-11-25T05:27:42.109Z,100682.75
2022-11-25T05:30:15.389Z,100672.88
2022-11-25T05:32:46.210Z,100678.91
2022-11-25T05:35:15.547Z,100675.13
2022-11-25T05:37:50.854Z,100691.78
2022-11-25T05:40:20.241Z,100687.81
2022-11-25T05:43:03.468Z,100684.44
2022-11-25T05:45:46.305Z,100695.50
2022-11-25T05:48:16.755Z,100691.69
2022-11-25T05:50:52.219Z,100689.47
2022-11-25T05:53:25.129Z,100683.38
2022-11-25T05:56:00.131Z,100692.00
2022-11-25T05:58:54.531Z,100698.16
2022-11-25T06:01:27.836Z,100708.44
2022-11-25T06:03:57.172Z,100706.91
2022-11-25T06:06:26.368Z,100702.72
2022-11-25T06:08:55.869Z,100703.53
2022-11-25T06:11:26.204Z,100711.06
2022-11-25T06:14:02.522Z,100712.78
2022-11-25T06:16:33.771Z,100676.69
2022-11-25T06:19:19.284Z,100713.44
2022-11-25T06:21:48.571Z,100713.56
2022-11-25T06:24:22.757Z,100700.78
2022-11-25T06:27:02.050Z,100717.81
2022-11-25T06:29:31.625Z,100721.78
2022-11-25T06:32:02.785Z,100736.03
2022-11-25T06:34:43.521Z,100726.72
2022-11-25T06:37:28.761Z,100721.38
2022-11-25T06:40:03.052Z,100735.47
2022-11-25T06:42:32.760Z,100739.75
2022-11-25T06:45:01.898Z,100741.16
2022-11-25T06:47:34.905Z,100697.59
2022-11-25T06:50:04.356Z,100738.16
2022-11-25T06:52:45.011Z,100736.41
2022-11-25T06:55:14.258Z,100741.13
2022-11-25T06:57:43.351Z,100750.56
2022-11-25T07:00:13.788Z,100744.34
2022-11-25T07:02:48.518Z,100749.13
2022-11-25T07:05:18.271Z,100746.31
2022-11-25T07:07:47.864Z,100752.22
2022-11-25T07:10:17.274Z,100762.56
2022-11-25T07:12:46.385Z,100751.06
2022-11-25T07:15:15.804Z,100767.34
2022-11-25T07:17:46.923Z,100769.66
2022-11-25T07:20:16.292Z,100769.75
2022-11-25T07:22:45.424Z,100769.66
2022-11-25T07:25:14.680Z,100755.06
2022-11-25T07:27:43.917Z,100766.97
2022-11-25T07:33:05.217Z,100774.22
2022-11-25T07:35:36.001Z,100762.16
2022-11-25T07:38:10.413Z,100770.72
2022-11-25T07:40:39.539Z,100772.44
2022-11-25T07:43:08.851Z,100764.28
2022-11-25T07:45:37.972Z,100768.66
2022-11-25T07:48:16.870Z,100780.56
2022-11-25T07:50:46.543Z,100782.19
2022-11-25T07:53:15.869Z,100777.31
2022-11-25T07:55:45.232Z,100786.94
2022-11-25T07:58:14.436Z,100791.25
2022-11-25T08:00:43.621Z,100781.94
2022-11-25T08:03:12.839Z,100782.34
2022-11-25T08:05:44.136Z,100773.25
2022-11-25T08:08:13.434Z,100783.31
2022-11-25T08:10:42.824Z,100786.41
2022-11-25T08:13:12.053Z,100766.78
2022-11-25T08:15:41.217Z,100788.25
2022-11-25T08:18:17.188Z,100785.59
2022-11-25T08:20:48.373Z,100792.19
2022-11-25T08:23:23.683Z,100782.88
2022-11-25T08:25:52.989Z,100784.44
2022-11-25T08:28:22.298Z,100807.44
2022-11-25T08:30:51.585Z,100757.25
2022-11-25T08:33:20.819Z,100800.38
2022-11-25T08:35:57.674Z,100792.75
2022-11-25T08:38:27.776Z,100791.97
2022-11-25T08:40:57.536Z,100791.31
2022-11-25T08:43:29.559Z,100796.25
2022-11-25T08:45:59.280Z,100800.25
2022-11-25T08:48:28.377Z,100795.09
2022-11-25T08:50:59.975Z,100789.97
2022-11-25T08:53:29.612Z,100804.13
2022-11-25T08:55:58.781Z,100769.00
2022-11-25T08:58:33.629Z,100806.78
2022-11-25T09:01:03.652Z,100809.13
2022-11-25T09:03:49.058Z,100809.88
2022-11-25T09:07:03.106Z,100811.09
2022-11-25T09:09:56.907Z,100819.34
2022-11-25T09:12:41.823Z,100813.00
2022-11-25T09:15:12.890Z,100810.16
2022-11-25T09:17:42.197Z,100814.31
2022-11-25T09:20:12.232Z,100817.03
2022-11-25T09:22:43.470Z,100809.47
2022-11-25T09:25:12.746Z,100781.41
2022-11-25T09:27:41.942Z,100821.38
2022-11-25T09:30:18.211Z,100818.09
2022-11-25T09:32:50.946Z,100816.50
2022-11-25T09:38:03.403Z,100814.72
2022-11-25T09:43:45.504Z,100805.53
2022-11-25T09:46:45.596Z,100812.91
2022-11-25T09:49:51.530Z,100805.91
2022-11-25T09:52:29.443Z,100807.59
2022-11-25T09:55:07.293Z,100800.03
2022-11-25T09:57:59.812Z,100801.72
2022-11-25T10:00:45.814Z,100812.50
2022-11-25T10:03:24.647Z,100803.16
2022-11-25T10:06:04.608Z,100809.91
2022-11-25T10:08:40.747Z,100796.00
2022-11-25T10:11:23.613Z,100816.59
2022-11-25T10:14:00.435Z,100817.78
2022-11-25T10:16:51.989Z,100816.94
2022-11-25T10:19:36.974Z,100814.28
2022-11-25T10:22:22.455Z,100817.69
2022-11-25T10:24:54.805Z,100823.03
2022-11-25T10:27:33.072Z,100831.66
2022-11-25T10:30:19.665Z,100844.16
2022-11-25T10:33:02.113Z,100832.03
2022-11-25T10:35:35.997Z,100823.41
2022-11-25T10:38:13.319Z,100831.75
2022-11-25T10:40:48.143Z,100816.78
2022-11-25T10:43:31.918Z,100834.88
2022-11-25T10:46:12.420Z,100853.03
2022-11-25T10:49:00.437Z,100824.53
2022-11-25T10:51:38.664Z,100852.97
2022-11-25T10:54:26.791Z,100862.72
2022-11-25T10:56:59.110Z,100867.00
2022-11-25T10:59:32.916Z,100860.69
2022-11-25T11:02:18.754Z,100871.66
2022-11-25T11:04:59.829Z,100872.41
2022-11-25T11:07:35.441Z,100867.34
2022-11-25T11:10:20.344Z,100871.94
2022-11-25T11:13:00.591Z,100865.13
2022-11-25T11:15:33.989Z,100868.09
2022-11-25T11:18:22.445Z,100866.59
2022-11-25T11:20:54.658Z,100862.31
2022-11-25T11:23:24.375Z,100875.78
2022-11-25T11:26:01.843Z,100854.94
2022-11-25T11:28:40.153Z,100836.16
2022-11-25T11:31:22.716Z,100876.34
2022-11-25T11:34:02.942Z,100869.66
2022-11-25T11:36:43.089Z,100849.59
2022-11-25T11:39:27.310Z,100864.59
2022-11-25T11:42:06.268Z,100849.19
2022-11-25T11:44:42.048Z,100856.16
2022-11-25T11:47:25.076Z,100847.53
2022-11-25T11:50:07.277Z,100863.06
2022-11-25T11:52:51.750Z,100878.31
2022-11-25T11:55:40.869Z,100889.16
2022-11-25T11:58:27.222Z,100886.50
2022-11-25T12:01:04.276Z,100888.81
2022-11-25T12:03:41.831Z,100875.00
2022-11-25T12:06:13.050Z,100902.75
2022-11-25T12:08:56.112Z,100899.94
2022-11-25T12:11:31.168Z,100903.47
2022-11-25T12:14:18.438Z,100905.13
2022-11-25T12:17:00.844Z,100906.53
2022-11-25T12:19:38.724Z,100901.63
2022-11-25T12:22:12.907Z,100902.34
2022-11-25T12:24:50.691Z,100868.66
2022-11-25T12:27:23.228Z,100905.91
2022-11-25T12:29:57.583Z,100894.63
2022-11-25T12:32:48.503Z,100889.25
2022-11-25T12:35:26.665Z,100913.06
2022-11-25T12:38:05.641Z,100909.44
2022-11-25T12:40:39.249Z,100914.88
2022-11-25T12:43:19.772Z,100910.03
2022-11-25T12:46:08.243Z,100925.88
2022-11-25T12:55:28.399Z,100891.75
2022-11-25T12:58:24.873Z,100921.84
2022-11-25T13:01:25.360Z,100936.00
2022-11-25T13:04:25.295Z,100934.56
2022-11-25T13:07:23.910Z,100938.63
2022-11-25T13:10:16.749Z,100949.59
2022-11-25T13:13:02.413Z,100948.16
2022-11-25T13:15:37.626Z,100940.25
2022-11-25T13:18:15.137Z,100958.78
2022-11-25T13:20:53.667Z,100953.09
2022-11-25T13:23:30.206Z,100951.63
2022-11-25T13:26:29.056Z,100952.59
2022-11-25T13:29:01.015Z,100954.72
2022-11-25T13:31:34.805Z,100954.72
2022-11-25T13:34:26.602Z,100915.81
2022-11-25T13:36:57.823Z,100951.00
2022-11-25T13:39:34.896Z,100953.75
2022-11-25T13:42:07.214Z,100956.13
2022-11-25T13:44:52.503Z,100953.59
2022-11-25T13:47:33.078Z,100951.84
2022-11-25T13:50:12.325Z,100945.81
2022-11-25T13:52:45.333Z,100955.38
2022-11-25T13:55:28.246Z,100967.50
2022-11-25T13:58:18.633Z,100962.69
2022-11-25T14:01:03.887Z,100962.44
2022-11-25T14:03:49.616Z,100958.41
2022-11-25T14:06:43.634Z,100947.34
2022-11-25T14:09:21.227Z,100952.28
2022-11-25T14:12:14.509Z,100923.38
2022-11-25T14:14:58.712Z,100968.84
2022-11-25T14:17:50.356Z,100975.41
2022-11-25T14:20:34.331Z,100965.31
2022-11-25T14:23:28.072Z,100962.69
2022-11-25T14:25:59.615Z,100965.41
2022-11-25T14:28:40.405Z,100971.66
2022-11-25T14:31:15.608Z,100978.91
2022-11-25T14:33:53.383Z,100973.88
2022-11-25T14:36:26.415Z,100951.50
2022-11-25T14:39:00.425Z,100976.63
2022-11-25T14:41:34.778Z,100977.50
2022-11-25T14:44:14.601Z,100985.31
2022-11-25T14:46:53.581Z,101002.75
2022-11-25T14:49:55.343Z,100983.69
2022-11-25T14:52:37.926Z,101000.56
2022-11-25T14:55:09.066Z,100993.78
2022-11-25T14:57:41.889Z,101006.81
2022-11-25T15:00:19.910Z,101001.56
2022-11-25T15:03:02.515Z,100999.34
2022-11-25T15:05:42.314Z,101002.66
2022-11-25T15:08:15.247Z,100986.13
2022-11-25T15:10:51.218Z,101001.28
2022-11-25T15:13:37.227Z,100998.97
2022-11-25T15:16:10.405Z,100993.03
2022-11-25T15:18:40.667Z,101015.41
2022-11-25T15:21:16.444Z,100983.94
2022-11-25T15:23:45.776Z,101010.44
2022-11-25T15:26:20.465Z,101005.63
2022-11-25T15:28:49.953Z,101001.63
2022-11-25T15:31:27.115Z,101016.78
2022-11-25T15:34:00.265Z,101004.03
2022-11-25T15:36:31.786Z,101023.34
2022-11-25T15:39:16.260Z,101004.78
2022-11-25T15:41:47.324Z,101008.09
2022-11-25T15:44:27.624Z,101008.63
2022-11-25T15:47:07.726Z,101022.66
2022-11-25T15:49:38.142Z,101024.00
2022-11-25T15:52:22.173Z,101031.66
2022-11-25T15:55:01.838Z,101010.78
2022-11-25T15:57:36.307Z,101020.22
2022-11-25T16:00:17.571Z,101017.16
2022-11-25T16:03:02.715Z,101011.69
2022-11-25T16:05:37.284Z,101026.59
2022-11-25T16:08:36.392Z,101034.50
2022-11-25T16:11:18.939Z,101028.69
2022-11-25T16:13:55.879Z,101025.38
2022-11-25T16:16:27.963Z,101018.94
2022-11-25T16:19:16.778Z,101024.66
2022-11-25T16:21:54.036Z,101036.63
2022-11-25T16:24:38.466Z,101016.53
2022-11-25T16:27:16.153Z,101020.59
2022-11-25T16:29:52.221Z,101028.38
2022-11-25T16:32:23.826Z,101027.50
2022-11-25T16:34:55.701Z,101037.59
2022-11-25T16:37:24.568Z,101034.41
2022-11-25T16:39:55.685Z,101034.63
2022-11-25T16:42:29.992Z,101022.03
2022-11-25T16:44:59.364Z,101037.38
2022-11-25T16:47:28.646Z,101043.19
2022-11-25T16:49:57.917Z,101045.50
2022-11-25T16:52:27.176Z,101032.31
2022-11-25T16:54:58.531Z,101036.94
2022-11-25T16:57:27.924Z,100998.66
2022-11-25T17:00:00.437Z,101020.25
2022-11-25T17:02:35.864Z,101029.16
2022-11-25T17:05:18.199Z,101040.56
2022-11-25T17:07:49.852Z,101043.63
2022-11-25T17:10:23.009Z,101043.41
2022-11-25T17:12:52.740Z,101052.84
2022-11-25T17:15:27.167Z,101047.47
2022-11-25T17:18:02.831Z,101046.38
2022-11-25T17:20:32.022Z,101059.66
2022-11-25T17:23:01.890Z,101050.53
2022-11-25T17:25:37.203Z,101054.72
2022-11-25T17:28:07.308Z,101031.44
2022-11-25T17:30:41.734Z,101054.03
2022-11-25T17:33:15.569Z,101031.69
2022-11-25T17:35:50.238Z,101042.00
2022-11-25T17:38:23.314Z,101045.59
2022-11-25T17:40:59.711Z,101044.31
2022-11-25T17:43:34.503Z,100994.41
2022-11-25T17:46:12.657Z,101050.75
2022-11-25T17:48:43.159Z,101025.19
2022-11-25T17:51:28.537Z,101039.13
2022-11-25T17:53:59.293Z,101012.16
2022-11-25T17:56:35.781Z,101004.50
2022-11-25T17:59:15.834Z,101043.72
2022-11-25T18:01:45.390Z,101044.75
2022-11-25T18:04:23.927Z,101057.09
2022-11-25T18:09:29.652Z,101022.94
2022-11-25T18:12:03.137Z,101028.63
2022-11-25T18:14:35.601Z,101049.63
2022-11-25T18:17:07.907Z,101035.66
2022-11-25T18:19:39.791Z,101069.84
2022-11-25T18:22:15.017Z,101048.78
2022-11-25T18:24:45.830Z,100996.56
2022-11-25T18:27:23.777Z,101063.69
2022-11-25T18:29:54.019Z,101045.19
2022-11-25T18:32:24.458Z,101070.28
2022-11-25T18:34:55.048Z,101076.63
2022-11-25T18:37:24.228Z,101073.34
2022-11-25T18:39:53.400Z,101074.88
2022-11-25T18:42:30.917Z,101058.00
2022-11-25T18:45:00.209Z,101070.63
2022-11-25T18:47:34.674Z,101081.47
2022-11-25T18:50:03.896Z,101069.84
2022-11-25T18:52:33.054Z,101062.41
2022-11-25T18:55:02.364Z,101039.38
2022-11-25T18:57:34.658Z,101065.91
2022-11-25T19:02:55.711Z,101070.03
2022-11-25T19:05:27.845Z,101071.69
2022-11-25T19:07:57.789Z,101100.78
2022-11-25T19:10:30.102Z,101080.81
2022-11-25T19:13:04.572Z,101093.56
2022-11-25T19:15:36.920Z,101084.78
2022-11-25T19:18:08.435Z,101097.56
2022-11-25T19:20:38.622Z,101107.81
2022-11-25T19:23:20.848Z,101080.63
2022-11-25T19:25:57.757Z,101086.75
2022-11-25T19:28:29.910Z,101093.56
2022-11-25T19:31:05.021Z,101101.00
2022-11-25T19:33:36.649Z,101105.25
2022-11-25T19:36:06.320Z,101109.66
2022-11-25T19:38:40.799Z,101099.69
2022-11-25T19:41:10.726Z,101103.84
2022-11-25T19:43:41.846Z,101114.16
2022-11-25T19:46:29.741Z,101112.50
2022-11-25T19:49:04.566Z,101104.06
2022-11-25T19:51:36.638Z,101111.72
2022-11-25T19:54:06.412Z,101113.50
2022-11-25T19:56:37.220Z,101113.63
2022-11-25T19:59:09.198Z,101078.09
2022-11-25T20:01:42.222Z,101101.22
2022-11-25T20:04:20.381Z,101104.97
2022-11-25T20:06:55.869Z,101085.88
2022-11-25T20:09:25.190Z,101105.91
2022-11-25T20:11:58.268Z,101109.13
2022-11-25T20:14:33.982Z,101094.19
2022-11-25T20:17:06.091Z,101115.47
2022-11-25T20:19:41.329Z,101112.16
2022-11-25T20:22:18.069Z,101128.41
2022-11-25T20:24:47.638Z,101120.88
2022-11-25T20:27:18.057Z,101080.78
2022-11-25T20:29:50.652Z,101095.84
2022-11-25T20:32:28.428Z,101120.41
2022-11-25T20:34:58.140Z,101110.53
2022-11-25T20:37:29.748Z,101137.94
2022-11-25T20:40:02.014Z,101140.00
2022-11-25T20:42:33.474Z,101133.56
2022-11-25T20:45:04.859Z,101149.91
2022-11-25T20:47:34.315Z,101138.25
2022-11-25T20:50:03.480Z,101150.69
2022-11-25T20:52:34.607Z,101154.81
2022-11-25T20:55:15.256Z,101118.84
2022-11-25T20:57:47.983Z,101140.72
2022-11-25T21:00:24.150Z,101139.56
2022-11-25T21:02:54.695Z,101155.56
2022-11-25T21:05:23.948Z,101147.03
2022-11-25T21:07:54.864Z,101154.28
2022-11-25T21:10:27.526Z,101152.72
2022-11-25T21:12:57.574Z,101151.59
2022-11-25T21:15:29.256Z,101152.03
2022-11-25T21:17:59.311Z,101148.78
2022-11-25T21:20:28.654Z,101159.94
2022-11-25T21:23:05.123Z,101151.38
2022-11-25T21:25:36.574Z,101164.34
2022-11-25T21:28:06.825Z,101144.47
2022-11-25T21:30:38.243Z,101164.66
2022-11-25T21:33:11.454Z,101180.00
2022-11-25T21:35:42.098Z,101142.34
2022-11-25T21:38:23.515Z,101174.97
2022-11-25T21:40:54.604Z,101177.19
2022-11-25T21:43:28.349Z,101151.63
2022-11-25T21:46:03.533Z,101169.97
2022-11-25T21:48:33.633Z,101183.22
2022-11-25T21:51:02.978Z,101181.28
2022-11-25T21:53:37.138Z,101176.84
2022-11-25T21:56:27.716Z,101166.50
2022-11-25T21:58:57.824Z,101169.50
2022-11-25T22:01:29.557Z,101169.84
2022-11-25T22:04:08.391Z,101173.84
2022-11-25T22:06:42.819Z,101168.59
2022-11-25T22:09:12.918Z,101183.88
2022-11-25T22:11:49.638Z,101173.13
2022-11-25T22:14:28.320Z,101162.13
2022-11-25T22:16:59.742Z,101181.47
2022-11-25T22:19:30.007Z,101184.53
2022-11-25T22:21:59.086Z,101185.84
2022-11-25T22:24:38.808Z,101187.84
2022-11-25T22:27:08.377Z,101172.66
2022-11-25T22:29:38.441Z,101180.13
2022-11-25T22:32:12.910Z,101153.94
2022-11-25T22:34:42.266Z,101163.00
2022-11-25T22:37:18.908Z,101155.91
2022-11-25T22:39:48.665Z,101179.25
2022-11-25T22:42:23.811Z,101179.25
2022-11-25T22:45:00.518Z,101185.22
2022-11-25T22:47:41.151Z,101182.78
2022-11-25T22:50:19.513Z,101181.47
2022-11-25T22:52:49.178Z,101173.13
2022-11-25T22:55:22.132Z,101164.28
2022-11-25T22:57:53.103Z,101181.41
2022-11-25T23:00:27.529Z,101167.88
2022-11-25T23:03:06.009Z,101169.97
2022-11-25T23:05:37.245Z,101135.34
2022-11-25T23:08:14.023Z,101168.56
2022-11-25T23:10:44.050Z,101143.72
2022-11-25T23:13:14.104Z,101176.88
2022-11-25T23:15:52.814Z,101163.63
2022-11-25T23:18:27.936Z,101173.13
2022-11-25T23:20:57.732Z,101146.06
2022-11-25T23:23:31.598Z,101155.38
2022-11-25T23:26:10.942Z,101159.78
2022-11-25T23:28:40.083Z,101158.00
2022-11-25T23:31:12.615Z,101163.06
2022-11-25T23:33:46.951Z,101164.38
2022-11-25T23:36:19.588Z,101164.38
2022-11-25T23:38:53.455Z,101156.94
2022-11-25T23:41:24.765Z,101127.47
2022-11-25T23:43:54.868Z,101159.75
2022-11-25T23:46:26.442Z,101161.22
2022-11-25T23:49:01.056Z,101151.22
2022-11-25T23:51:35.703Z,101175.22
2022-11-25T23:54:04.996Z,101169.41
2022-11-25T23:56:34.305Z,101169.28
2022-11-25T23:59:14.592Z,101174.31
